^^
Station Historical Data
Daily Summary for February 17, 2017 Units:  English    Metric   Both
« Previous Day
Next Day »
Daily Weekly Monthly Yearly Custom
  High: Low: Average:
Temperature: 44.6 °F 24.7 °F 32.6 °F
Dew Point: 22.1 °F 15.7 °F 19.1 °F
Humidity: 73 % 35 % 58 %
Wind Speed: 9.9 mph 0.0 mph 3.3 mph
Wind Gust: 15.0 mph - -
Wind:- - West
Pressure: 29.95 in 29.86 in -
Precipitation: 0.00 in    
Historical Graphs
 
 
Tabular Data for February 17, 2017
Time Temperature Dew Point Pressure Wind Wind Speed Wind Gust Humidity Rainfall Rate (Hourly) solar Conditions
00:03 27.3 °F 16.0 °F 29.88 in WNW 9.3 mph 13.8 mph 62 % 0.00 in 0.0 W/m2 CLR
00:08 27.4 °F 15.7 °F 29.88 in NW 6.3 mph 11.5 mph 61 % 0.00 in 0.0 W/m2 CLR
00:13 27.3 °F 16.0 °F 29.88 in NW 7.2 mph 15.0 mph 62 % 0.00 in 0.0 W/m2 CLR
00:18 27.2 °F 15.9 °F 29.89 in NNW 9.9 mph 12.7 mph 62 % 0.00 in 0.0 W/m2 CLR
00:23 27.2 °F 15.9 °F 29.89 in WNW 8.4 mph 13.8 mph 62 % 0.00 in 0.0 W/m2 CLR
00:28 27.3 °F 16.0 °F 29.89 in NW 5.0 mph 10.4 mph 62 % 0.00 in 0.0 W/m2 CLR
00:33 27.2 °F 16.3 °F 29.89 in NW 7.4 mph 12.7 mph 63 % 0.00 in 0.0 W/m2 CLR
00:38 27.2 °F 15.9 °F 29.89 in NW 4.6 mph 9.2 mph 62 % 0.00 in 0.0 W/m2 CLR
00:43 27.1 °F 15.8 °F 29.89 in WNW 3.5 mph 5.0 mph 62 % 0.00 in 0.0 W/m2 CLR
00:48 27.1 °F 15.8 °F 29.90 in WNW 3.9 mph 6.9 mph 62 % 0.00 in 0.0 W/m2 CLR
00:53 27.1 °F 15.8 °F 29.90 in WNW 2.8 mph 4.6 mph 62 % 0.00 in 0.0 W/m2 CLR
00:58 27.0 °F 16.1 °F 29.90 in WNW 0.5 mph 2.3 mph 63 % 0.00 in 0.0 W/m2 CLR
01:03 27.1 °F 16.2 °F 29.90 in West 2.7 mph 5.8 mph 63 % 0.00 in 0.0 W/m2 CLR
01:08 27.1 °F 16.2 °F 29.90 in West 1.2 mph 2.3 mph 63 % 0.00 in 0.0 W/m2 CLR
01:13 27.1 °F 16.2 °F 29.89 in West 1.9 mph 3.5 mph 63 % 0.00 in 0.0 W/m2 CLR
01:18 27.1 °F 16.2 °F 29.90 in SW 2.7 mph 4.0 mph 63 % 0.00 in 0.0 W/m2 CLR
01:23 27.1 °F 16.2 °F 29.90 in WNW 3.7 mph 4.0 mph 63 % 0.00 in 0.0 W/m2 CLR
01:28 27.2 °F 16.3 °F 29.90 in West 3.1 mph 6.9 mph 63 % 0.00 in 0.0 W/m2 CLR
01:33 27.2 °F 16.3 °F 29.90 in West 2.8 mph 8.1 mph 63 % 0.00 in 0.0 W/m2 CLR
01:38 27.3 °F 16.4 °F 29.90 in West 3.6 mph 4.0 mph 63 % 0.00 in 0.0 W/m2 CLR
01:43 27.3 °F 16.4 °F 29.91 in West 3.2 mph 3.5 mph 63 % 0.00 in 0.0 W/m2 CLR
01:48 27.2 °F 16.3 °F 29.91 in West 2.0 mph 3.5 mph 63 % 0.00 in 0.0 W/m2 CLR
01:53 27.1 °F 16.2 °F 29.91 in West 2.5 mph 5.8 mph 63 % 0.00 in 0.0 W/m2 CLR
01:58 26.9 °F 16.0 °F 29.91 in West 1.0 mph 3.5 mph 63 % 0.00 in 0.0 W/m2 CLR
02:03 26.9 °F 16.3 °F 29.91 in WSW 1.9 mph 3.5 mph 64 % 0.00 in 0.0 W/m2 CLR
02:08 26.8 °F 16.2 °F 29.91 in SW 2.7 mph 4.6 mph 64 % 0.00 in 0.0 W/m2 CLR
02:13 26.8 °F 16.2 °F 29.91 in WSW 2.7 mph 4.6 mph 64 % 0.00 in 0.0 W/m2 CLR
02:18 26.8 °F 16.2 °F 29.91 in WSW 2.9 mph 5.8 mph 64 % 0.00 in 0.0 W/m2 CLR
02:23 26.9 °F 16.3 °F 29.91 in SW 2.4 mph 4.6 mph 64 % 0.00 in 0.0 W/m2 CLR
02:28 26.8 °F 16.6 °F 29.91 in WSW 1.9 mph 5.8 mph 65 % 0.00 in 0.0 W/m2 CLR
02:33 26.8 °F 16.6 °F 29.91 in WSW 4.1 mph 5.0 mph 65 % 0.00 in 0.0 W/m2 CLR
02:38 26.8 °F 16.6 °F 29.91 in West 3.7 mph 6.0 mph 65 % 0.00 in 0.0 W/m2 CLR
02:39 26.8 °F 16.6 °F 29.91 in West 3.7 mph 6.0 mph 65 % 0.00 in 0.0 W/m2 CLR
02:44 26.8 °F 16.6 °F 29.91 in West 4.3 mph 8.1 mph 65 % 0.00 in 0.0 W/m2 CLR
02:49 26.8 °F 16.6 °F 29.91 in West 4.1 mph 6.9 mph 65 % 0.00 in 0.0 W/m2 CLR
02:54 26.8 °F 16.2 °F 29.91 in West 5.3 mph 10.4 mph 64 % 0.00 in 0.0 W/m2 CLR
02:59 26.8 °F 16.2 °F 29.91 in WNW 7.4 mph 11.5 mph 64 % 0.00 in 0.0 W/m2 CLR
03:04 26.7 °F 16.1 °F 29.90 in WNW 4.7 mph 6.9 mph 64 % 0.00 in 0.0 W/m2 CLR
03:09 26.6 °F 16.1 °F 29.91 in WNW 6.0 mph 9.2 mph 64 % 0.00 in 0.0 W/m2 CLR
03:14 26.7 °F 16.1 °F 29.90 in West 6.9 mph 12.7 mph 64 % 0.00 in 0.0 W/m2 CLR
03:19 26.6 °F 16.1 °F 29.90 in West 5.5 mph 10.0 mph 64 % 0.00 in 0.0 W/m2 CLR
03:24 26.5 °F 16.0 °F 29.90 in West 4.9 mph 8.1 mph 64 % 0.00 in 0.0 W/m2 CLR
03:29 26.4 °F 15.9 °F 29.90 in WSW 6.6 mph 12.0 mph 64 % 0.00 in 0.0 W/m2 CLR
03:34 26.3 °F 16.1 °F 29.90 in West 7.1 mph 10.4 mph 65 % 0.00 in 0.0 W/m2 CLR
03:39 26.3 °F 16.1 °F 29.90 in West 6.8 mph 10.4 mph 65 % 0.00 in 0.0 W/m2 CLR
03:44 26.2 °F 16.0 °F 29.90 in West 4.8 mph 6.9 mph 65 % 0.00 in 0.0 W/m2 CLR
03:49 26.1 °F 15.9 °F 29.91 in West 4.9 mph 8.1 mph 65 % 0.00 in 0.0 W/m2 CLR
03:54 26.1 °F 15.9 °F 29.90 in WSW 5.4 mph 9.2 mph 65 % 0.00 in 0.0 W/m2 CLR
03:59 26.1 °F 16.3 °F 29.90 in West 3.5 mph 5.8 mph 66 % 0.00 in 0.0 W/m2 CLR
04:04 26.0 °F 16.2 °F 29.90 in West 5.9 mph 9.2 mph 66 % 0.00 in 0.0 W/m2 CLR
04:09 26.0 °F 16.2 °F 29.90 in West 4.9 mph 8.1 mph 66 % 0.00 in 0.0 W/m2 CLR
04:14 26.0 °F 16.2 °F 29.91 in WSW 6.2 mph 11.5 mph 66 % 0.00 in 0.0 W/m2 CLR
04:19 25.9 °F 16.1 °F 29.91 in West 3.6 mph 5.8 mph 66 % 0.00 in 0.0 W/m2 CLR
04:24 25.8 °F 16.3 °F 29.91 in WSW 3.8 mph 6.9 mph 67 % 0.00 in 0.0 W/m2 CLR
04:29 25.7 °F 16.3 °F 29.91 in West 4.5 mph 8.1 mph 67 % 0.00 in 0.0 W/m2 CLR
04:34 25.7 °F 16.3 °F 29.91 in West 3.6 mph 6.9 mph 67 % 0.00 in 0.0 W/m2 CLR
04:39 25.7 °F 16.3 °F 29.91 in West 4.0 mph 6.9 mph 67 % 0.00 in 0.0 W/m2 CLR
04:44 25.6 °F 16.2 °F 29.91 in West 7.9 mph 11.5 mph 67 % 0.00 in 0.0 W/m2 CLR
04:49 25.7 °F 16.3 °F 29.91 in West 6.1 mph 11.5 mph 67 % 0.00 in 0.0 W/m2 CLR
04:54 25.9 °F 16.4 °F 29.91 in West 8.7 mph 10.4 mph 67 % 0.00 in 0.0 W/m2 CLR
04:59 26.0 °F 16.5 °F 29.91 in WNW 3.2 mph 8.1 mph 67 % 0.00 in 0.0 W/m2 CLR
05:04 26.0 °F 16.5 °F 29.91 in West 4.5 mph 8.1 mph 67 % 0.00 in 0.0 W/m2 CLR
05:09 26.0 °F 16.5 °F 29.91 in WNW 7.4 mph 11.5 mph 67 % 0.00 in 0.0 W/m2 CLR
05:14 26.2 °F 16.4 °F 29.92 in NW 7.1 mph 11.5 mph 66 % 0.00 in 0.0 W/m2 CLR
05:19 26.1 °F 16.3 °F 29.92 in WNW 7.9 mph 12.7 mph 66 % 0.00 in 0.0 W/m2 CLR
05:24 26.0 °F 16.2 °F 29.91 in WNW 6.0 mph 10.0 mph 66 % 0.00 in 0.0 W/m2 CLR
05:29 26.0 °F 16.2 °F 29.92 in WNW 6.5 mph 9.0 mph 66 % 0.00 in 0.0 W/m2 CLR
05:34 26.0 °F 16.2 °F 29.92 in NW 8.8 mph 13.0 mph 66 % 0.00 in 0.0 W/m2 CLR
05:39 26.2 °F 16.4 °F 29.92 in NW 9.0 mph 11.5 mph 66 % 0.00 in 0.0 W/m2 CLR
05:44 26.2 °F 16.4 °F 29.92 in West 5.5 mph 8.1 mph 66 % 0.00 in 0.0 W/m2 CLR
05:49 26.1 °F 16.3 °F 29.92 in NW 7.3 mph 11.5 mph 66 % 0.00 in 0.0 W/m2 CLR
05:54 26.1 °F 16.3 °F 29.92 in NW 4.7 mph 10.4 mph 66 % 0.00 in 0.0 W/m2 CLR
05:59 26.0 °F 16.2 °F 29.92 in West 6.0 mph 10.0 mph 66 % 0.00 in 0.0 W/m2 CLR
06:04 25.8 °F 16.0 °F 29.92 in WNW 6.0 mph 10.4 mph 66 % 0.00 in 0.0 W/m2 CLR
06:09 25.8 °F 16.3 °F 29.92 in WNW 6.3 mph 10.4 mph 67 % 0.00 in 0.0 W/m2 CLR
06:14 25.8 °F 16.3 °F 29.92 in WNW 5.0 mph 6.9 mph 67 % 0.00 in 0.0 W/m2 CLR
06:19 25.9 °F 16.4 °F 29.92 in West 4.6 mph 6.9 mph 67 % 0.00 in 0.0 W/m2 CLR
06:24 25.9 °F 16.4 °F 29.92 in West 5.9 mph 8.1 mph 67 % 0.00 in 0.0 W/m2 CLR
06:29 25.9 °F 16.4 °F 29.92 in WNW 3.1 mph 8.1 mph 67 % 0.00 in 0.0 W/m2 CLR
06:34 25.8 °F 16.3 °F 29.93 in West 2.3 mph 11.5 mph 67 % 0.00 in 0.0 W/m2 CLR
06:39 25.7 °F 16.3 °F 29.93 in West 0.1 mph 3.5 mph 67 % 0.00 in 0.0 W/m2 CLR
06:44 25.3 °F 15.9 °F 29.93 in West 1.6 mph 2.0 mph 67 % 0.00 in 5.0 W/m2 CLR
06:49 25.4 °F 16.3 °F 29.93 in WNW 0.9 mph 8.1 mph 68 % 0.00 in 7.0 W/m2 CLR
06:54 25.5 °F 16.4 °F 29.93 in West 2.0 mph 3.5 mph 68 % 0.00 in 7.0 W/m2 CLR
06:59 25.1 °F 16.0 °F 29.93 in SW 2.1 mph 3.5 mph 68 % 0.00 in 7.0 W/m2 CLR
07:05 24.7 °F 16.0 °F 29.93 in SW 2.6 mph 4.6 mph 69 % 0.00 in 12.0 W/m2 CLR
07:10 24.7 °F 16.3 °F 29.93 in SW 0.5 mph 3.5 mph 70 % 0.00 in 14.0 W/m2 CLR
07:15 24.7 °F 16.3 °F 29.93 in SSW 4.5 mph 5.8 mph 70 % 0.00 in 18.0 W/m2 CLR
07:20 24.7 °F 16.6 °F 29.93 in SW 2.6 mph 3.5 mph 71 % 0.00 in 25.0 W/m2 CLR
07:25 24.9 °F 16.8 °F 29.93 in SW 2.7 mph 4.6 mph 71 % 0.00 in 28.0 W/m2 CLR
07:30 25.0 °F 16.9 °F 29.93 in WSW 3.2 mph 4.6 mph 71 % 0.00 in 32.0 W/m2 CLR
07:35 25.1 °F 17.0 °F 29.93 in WSW 3.2 mph 3.5 mph 71 % 0.00 in 42.0 W/m2 CLR
07:40 25.3 °F 17.2 °F 29.93 in WSW 2.9 mph 5.8 mph 71 % 0.00 in 51.0 W/m2 CLR
07:45 25.4 °F 17.3 °F 29.93 in SW 3.0 mph 5.8 mph 71 % 0.00 in 63.0 W/m2 CLR
07:50 25.5 °F 17.1 °F 29.93 in SSW 2.7 mph 3.5 mph 70 % 0.00 in 65.0 W/m2 CLR
07:55 25.6 °F 17.2 °F 29.93 in WSW 3.4 mph 4.6 mph 70 % 0.00 in 69.0 W/m2 FEW
08:00 25.8 °F 17.4 °F 29.94 in WSW 2.2 mph 4.0 mph 70 % 0.00 in 76.0 W/m2 FEW
08:05 25.9 °F 17.5 °F 29.94 in SW 2.5 mph 4.0 mph 70 % 0.00 in 88.0 W/m2 FEW
08:10 26.0 °F 17.6 °F 29.94 in WSW 2.6 mph 8.0 mph 70 % 0.00 in 81.0 W/m2 FEW
08:15 26.0 °F 17.6 °F 29.94 in WSW 3.1 mph 7.0 mph 70 % 0.00 in 88.0 W/m2 SCT
08:20 26.1 °F 17.6 °F 29.94 in WSW 3.0 mph 6.9 mph 70 % 0.00 in 93.0 W/m2 SCT
08:25 26.2 °F 17.7 °F 29.94 in WSW 2.0 mph 3.5 mph 70 % 0.00 in 105.0 W/m2 FEW
08:30 26.4 °F 17.9 °F 29.94 in WSW 4.7 mph 8.1 mph 70 % 0.00 in 118.0 W/m2 SCT
08:35 26.6 °F 18.1 °F 29.94 in WSW 2.8 mph 7.0 mph 70 % 0.00 in 186.0 W/m2 CLR
08:40 26.8 °F 18.0 °F 29.94 in SW 4.7 mph 6.9 mph 69 % 0.00 in 134.0 W/m2 SCT
08:45 26.9 °F 18.1 °F 29.94 in WSW 3.1 mph 6.9 mph 69 % 0.00 in 343.0 W/m2 CLR
08:50 27.5 °F 18.7 °F 29.94 in WSW 5.9 mph 9.2 mph 69 % 0.00 in 325.0 W/m2 CLR
08:55 27.8 °F 18.6 °F 29.94 in SW 3.9 mph 6.9 mph 68 % 0.00 in 258.0 W/m2 CLR
09:00 28.0 °F 18.5 °F 29.94 in SW 5.9 mph 11.5 mph 67 % 0.00 in 295.0 W/m2 CLR
09:05 28.4 °F 18.8 °F 29.94 in WSW 3.4 mph 8.1 mph 67 % 0.00 in 243.0 W/m2 FEW
09:10 28.8 °F 18.9 °F 29.94 in West 2.9 mph 3.5 mph 66 % 0.00 in 279.0 W/m2 CLR
09:15 29.8 °F 18.7 °F 29.94 in NW 2.0 mph 3.5 mph 63 % 0.00 in 239.0 W/m2 CLR
09:21 30.3 °F 18.8 °F 29.94 in WNW 5.6 mph 9.2 mph 62 % 0.00 in 232.0 W/m2 FEW
09:26 30.0 °F 18.5 °F 29.95 in WSW 5.0 mph 6.9 mph 62 % 0.00 in 251.0 W/m2 FEW
09:31 29.5 °F 18.8 °F 29.95 in NW 5.6 mph 8.0 mph 64 % 0.00 in 236.0 W/m2 FEW
09:36 30.0 °F 18.5 °F 29.94 in NW 3.7 mph 6.9 mph 62 % 0.00 in 232.0 W/m2 FEW
09:41 30.5 °F 18.6 °F 29.94 in WSW 7.7 mph 11.5 mph 61 % 0.00 in 246.0 W/m2 FEW
09:46 30.4 °F 18.5 °F 29.94 in NW 7.7 mph 11.5 mph 61 % 0.00 in 248.0 W/m2 FEW
09:51 30.6 °F 18.3 °F 29.94 in WNW 4.3 mph 8.0 mph 60 % 0.00 in 241.0 W/m2 FEW
09:56 31.1 °F 19.2 °F 29.94 in WNW 3.5 mph 7.0 mph 61 % 0.00 in 461.0 W/m2 CLR
10:01 31.8 °F 19.1 °F 29.94 in WNW 6.4 mph 11.5 mph 59 % 0.00 in 531.0 W/m2 CLR
10:06 31.8 °F 18.7 °F 29.94 in WNW 7.3 mph 10.4 mph 58 % 0.00 in 439.0 W/m2 CLR
10:11 32.5 °F 19.7 °F 29.94 in NW 4.7 mph 9.2 mph 59 % 0.00 in 506.0 W/m2 CLR
10:16 33.0 °F 19.4 °F 29.94 in WNW 2.8 mph 4.6 mph 57 % 0.00 in 434.0 W/m2 CLR
10:21 33.0 °F 19.4 °F 29.94 in West 5.6 mph 11.5 mph 57 % 0.00 in 461.0 W/m2 CLR
10:26 33.6 °F 19.6 °F 29.94 in NW 7.0 mph 9.2 mph 56 % 0.00 in 555.0 W/m2 CLR
10:31 33.8 °F 20.2 °F 29.94 in West 5.4 mph 8.1 mph 57 % 0.00 in 635.0 W/m2 CLR
10:36 33.4 °F 19.8 °F 29.94 in NW 3.6 mph 4.0 mph 57 % 0.00 in 603.0 W/m2 CLR
10:41 34.2 °F 20.1 °F 29.94 in WNW 3.1 mph 8.1 mph 56 % 0.00 in 496.0 W/m2 CLR
10:46 35.0 °F 20.9 °F 29.94 in WNW 4.9 mph 6.9 mph 56 % 0.00 in 454.0 W/m2 CLR
10:51 35.4 °F 20.4 °F 29.94 in NW 5.1 mph 8.1 mph 54 % 0.00 in 478.0 W/m2 CLR
10:56 34.8 °F 19.4 °F 29.94 in West 7.2 mph 11.5 mph 53 % 0.00 in 462.0 W/m2 CLR
11:01 34.3 °F 19.4 °F 29.94 in WSW 3.7 mph 7.0 mph 54 % 0.00 in 417.0 W/m2 FEW
11:06 34.4 °F 19.9 °F 29.94 in West 3.0 mph 7.0 mph 55 % 0.00 in 626.0 W/m2 CLR
11:14 35.5 °F 20.0 °F 29.93 in WNW 8.0 mph 8.1 mph 53 % 0.00 in 654.0 W/m2 OVC
11:19 35.8 °F 20.3 °F 29.93 in NNW 4.3 mph 9.2 mph 53 % 0.00 in 656.0 W/m2 CLR
11:24 36.1 °F 20.6 °F 29.93 in NW 5.7 mph 9.2 mph 53 % 0.00 in 656.0 W/m2 CLR
11:29 36.5 °F 20.5 °F 29.93 in WNW 5.4 mph 9.2 mph 52 % 0.00 in 659.0 W/m2 CLR
11:34 36.4 °F 20.4 °F 29.93 in West 2.6 mph 9.0 mph 52 % 0.00 in 663.0 W/m2 CLR
11:39 36.6 °F 21.1 °F 29.92 in WNW 4.3 mph 11.5 mph 53 % 0.00 in 666.0 W/m2 CLR
11:44 36.4 °F 20.4 °F 29.92 in WSW 5.1 mph 8.1 mph 52 % 0.00 in 671.0 W/m2 CLR
11:49 35.6 °F 20.1 °F 29.92 in WSW 2.9 mph 6.0 mph 53 % 0.00 in 670.0 W/m2 CLR
11:54 35.7 °F 20.2 °F 29.92 in West 2.0 mph 8.1 mph 53 % 0.00 in 671.0 W/m2 CLR
11:59 36.0 °F 20.5 °F 29.91 in SW 5.5 mph 8.1 mph 53 % 0.00 in 675.0 W/m2 CLR
12:04 36.7 °F 21.6 °F 29.91 in SW 1.2 mph 1.2 mph 54 % 0.00 in 675.0 W/m2 CLR
12:09 37.5 °F 21.5 °F 29.91 in SW 6.9 mph 7.0 mph 52 % 0.00 in 675.0 W/m2 CLR
12:14 36.7 °F 20.3 °F 29.91 in WSW 1.5 mph 8.1 mph 51 % 0.00 in 677.0 W/m2 CLR
12:20 36.5 °F 20.5 °F 29.90 in SW 3.5 mph 4.6 mph 52 % 0.00 in 675.0 W/m2 CLR
12:25 37.2 °F 21.2 °F 29.90 in West 4.4 mph 11.5 mph 52 % 0.00 in 673.0 W/m2 CLR
12:30 37.2 °F 20.7 °F 29.90 in WSW 6.3 mph 9.2 mph 51 % 0.00 in 670.0 W/m2 CLR
12:35 37.4 °F 21.4 °F 29.90 in WSW 7.0 mph 10.0 mph 52 % 0.00 in 668.0 W/m2 CLR
12:40 37.2 °F 20.7 °F 29.90 in SW 1.3 mph 5.8 mph 51 % 0.00 in 666.0 W/m2 CLR
12:45 38.0 °F 21.5 °F 29.90 in West 7.6 mph 11.5 mph 51 % 0.00 in 664.0 W/m2 CLR
12:50 37.8 °F 20.8 °F 29.89 in West 1.7 mph 4.0 mph 50 % 0.00 in 659.0 W/m2 CLR
12:55 37.9 °F 21.4 °F 29.89 in West 3.0 mph 8.1 mph 51 % 0.00 in 656.0 W/m2 CLR
13:00 38.5 °F 21.9 °F 29.89 in South 5.5 mph 7.0 mph 51 % 0.00 in 652.0 W/m2 CLR
13:05 38.6 °F 21.1 °F 29.89 in WSW 2.6 mph 8.1 mph 49 % 0.00 in 652.0 W/m2 CLR
13:10 38.9 °F 21.3 °F 29.89 in WSW 4.5 mph 8.1 mph 49 % 0.00 in 649.0 W/m2 CLR
13:15 39.7 °F 22.1 °F 29.89 in West 4.8 mph 7.0 mph 49 % 0.00 in 638.0 W/m2 CLR
13:20 40.1 °F 22.0 °F 29.89 in West 3.8 mph 8.1 mph 48 % 0.00 in 633.0 W/m2 CLR
13:25 39.7 °F 21.6 °F 29.89 in SSW 6.9 mph 10.4 mph 48 % 0.00 in 622.0 W/m2 CLR
13:30 39.4 °F 21.3 °F 29.89 in SSW 6.0 mph 11.5 mph 48 % 0.00 in 617.0 W/m2 CLR
13:35 39.6 °F 21.5 °F 29.88 in SW 6.8 mph 9.2 mph 48 % 0.00 in 612.0 W/m2 CLR
13:40 39.6 °F 21.5 °F 29.88 in SW 5.2 mph 8.1 mph 48 % 0.00 in 489.0 W/m2 CLR
13:45 40.0 °F 21.9 °F 29.88 in West 5.9 mph 9.2 mph 48 % 0.00 in 598.0 W/m2 CLR
13:50 40.1 °F 21.5 °F 29.87 in SW 5.1 mph 8.0 mph 47 % 0.00 in 589.0 W/m2 CLR
13:55 40.3 °F 21.6 °F 29.87 in West 5.5 mph 8.1 mph 47 % 0.00 in 582.0 W/m2 CLR
14:00 40.8 °F 22.1 °F 29.87 in West 4.5 mph 6.9 mph 47 % 0.00 in 575.0 W/m2 CLR
14:05 41.4 °F 21.6 °F 29.87 in WNW 7.7 mph 12.7 mph 45 % 0.00 in 561.0 W/m2 CLR
14:10 41.1 °F 21.3 °F 29.87 in WSW 6.4 mph 8.1 mph 45 % 0.00 in 548.0 W/m2 CLR
14:15 41.0 °F 21.8 °F 29.87 in WNW 3.1 mph 6.9 mph 46 % 0.00 in 540.0 W/m2 CLR
14:20 41.1 °F 21.9 °F 29.87 in SSW 6.8 mph 9.2 mph 46 % 0.00 in 529.0 W/m2 CLR
14:25 41.3 °F 22.1 °F 29.87 in SSW 3.0 mph 4.6 mph 46 % 0.00 in 519.0 W/m2 CLR
14:30 41.6 °F 21.8 °F 29.87 in West 6.7 mph 11.5 mph 45 % 0.00 in 508.0 W/m2 CLR
14:35 41.6 °F 21.3 °F 29.87 in WSW 6.4 mph 10.4 mph 44 % 0.00 in 497.0 W/m2 CLR
14:40 41.7 °F 21.4 °F 29.87 in West 4.7 mph 9.2 mph 44 % 0.00 in 482.0 W/m2 CLR
14:45 42.1 °F 21.2 °F 29.86 in SSW 2.6 mph 3.5 mph 43 % 0.00 in 473.0 W/m2 CLR
14:50 42.1 °F 21.2 °F 29.86 in SSW 2.9 mph 5.8 mph 43 % 0.00 in 466.0 W/m2 CLR
14:55 42.6 °F 21.6 °F 29.86 in Calm   2.3 mph 43 % 0.00 in 473.0 W/m2 CLR
15:00 43.3 °F 21.1 °F 29.86 in West 7.4 mph 9.2 mph 41 % 0.00 in 469.0 W/m2 CLR
15:05 44.0 °F 20.6 °F 29.86 in WNW 6.8 mph 11.5 mph 39 % 0.00 in 431.0 W/m2 CLR
15:10 43.9 °F 19.3 °F 29.86 in NW 3.8 mph 9.2 mph 37 % 0.00 in 415.0 W/m2 CLR
15:16 43.9 °F 20.5 °F 29.86 in NW 6.2 mph 9.2 mph 39 % 0.00 in 388.0 W/m2 CLR
15:21 43.5 °F 20.2 °F 29.86 in NW 7.4 mph 8.1 mph 39 % 0.00 in 392.0 W/m2 CLR
15:26 44.2 °F 20.8 °F 29.86 in West 6.6 mph 8.0 mph 39 % 0.00 in 397.0 W/m2 CLR
15:31 43.9 °F 20.5 °F 29.86 in West 3.0 mph 6.9 mph 39 % 0.00 in 369.0 W/m2 CLR
15:36 44.3 °F 20.3 °F 29.86 in NNW 3.2 mph 3.5 mph 38 % 0.00 in 197.0 W/m2 CLR
15:41 44.3 °F 20.3 °F 29.86 in West 3.6 mph 7.0 mph 38 % 0.00 in 239.0 W/m2 FEW
15:46 44.2 °F 20.2 °F 29.86 in WSW 3.7 mph 6.0 mph 38 % 0.00 in 371.0 W/m2 CLR
15:51 44.0 °F 18.7 °F 29.86 in WNW 2.7 mph 6.9 mph 36 % 0.00 in 113.0 W/m2 CLR
15:56 43.4 °F 18.8 °F 29.86 in WNW 3.9 mph 6.9 mph 37 % 0.00 in 178.0 W/m2 FEW
16:01 43.5 °F 19.5 °F 29.86 in WNW 5.4 mph 8.1 mph 38 % 0.00 in 269.0 W/m2 CLR
16:06 43.9 °F 19.3 °F 29.86 in WSW 5.3 mph 9.2 mph 37 % 0.00 in 309.0 W/m2 CLR
16:11 44.3 °F 19.0 °F 29.86 in West 6.3 mph 11.5 mph 36 % 0.00 in 265.0 W/m2 CLR
16:16 44.6 °F 19.3 °F 29.86 in West 6.2 mph 9.2 mph 36 % 0.00 in 227.0 W/m2 CLR
16:21 44.1 °F 18.8 °F 29.86 in NW 6.0 mph 8.1 mph 36 % 0.00 in 220.0 W/m2 CLR
16:26 44.0 °F 18.1 °F 29.86 in NW 6.2 mph 9.2 mph 35 % 0.00 in 211.0 W/m2 CLR
16:31 44.3 °F 19.6 °F 29.86 in WNW 5.6 mph 9.2 mph 37 % 0.00 in 165.0 W/m2 CLR
16:36 44.3 °F 19.6 °F 29.87 in NW 4.6 mph 8.1 mph 37 % 0.00 in 137.0 W/m2 CLR
16:41 44.2 °F 19.5 °F 29.87 in West 4.2 mph 5.8 mph 37 % 0.00 in 113.0 W/m2 CLR
16:46 44.0 °F 19.4 °F 29.87 in WNW 7.0 mph 10.4 mph 37 % 0.00 in 98.0 W/m2 CLR
16:51 43.8 °F 19.2 °F 29.88 in WNW 3.8 mph 8.1 mph 37 % 0.00 in 97.0 W/m2 CLR
16:56 43.7 °F 19.7 °F 29.88 in NW 5.1 mph 9.2 mph 38 % 0.00 in 95.0 W/m2 CLR
17:01 43.5 °F 19.5 °F 29.88 in WNW 2.3 mph 8.1 mph 38 % 0.00 in 67.0 W/m2 CLR
17:06 43.4 °F 19.5 °F 29.88 in WNW 2.7 mph 3.5 mph 38 % 0.00 in 39.0 W/m2 FEW
17:11 43.1 °F 19.8 °F 29.88 in WNW 1.3 mph 3.5 mph 39 % 0.00 in 26.0 W/m2 SCT
17:16 42.9 °F 19.6 °F 29.88 in WNW 1.8 mph 4.0 mph 39 % 0.00 in 18.0 W/m2 SCT
17:21 42.3 °F 19.7 °F 29.88 in SW 3.2 mph 6.0 mph 40 % 0.00 in 12.0 W/m2 SCT
17:26 41.7 °F 20.3 °F 29.89 in WSW 3.1 mph 8.1 mph 42 % 0.00 in 11.0 W/m2 SCT
17:31 41.2 °F 20.9 °F 29.89 in WSW 2.6 mph 2.6 mph 44 % 0.00 in 9.0 W/m2 CLR
17:36 40.8 °F 21.1 °F 29.89 in WSW 1.4 mph 3.5 mph 45 % 0.00 in 7.0 W/m2 CLR
17:41 40.5 °F 20.8 °F 29.89 in WSW 1.5 mph 3.5 mph 45 % 0.00 in 0.0 W/m2 CLR
17:46 40.3 °F 21.1 °F 29.89 in WSW 0.9 mph 3.5 mph 46 % 0.00 in 0.0 W/m2 CLR
17:51 40.1 °F 21.0 °F 29.89 in WSW 0.9 mph 3.0 mph 46 % 0.00 in 0.0 W/m2 CLR
17:56 39.8 °F 21.2 °F 29.89 in WSW 0.1 mph 3.5 mph 47 % 0.00 in 0.0 W/m2 CLR
18:01 39.5 °F 21.4 °F 29.89 in Calm     48 % 0.00 in 0.0 W/m2 CLR
18:06 39.4 °F 20.8 °F 29.89 in Calm     47 % 0.00 in 0.0 W/m2 CLR
18:11 39.3 °F 20.7 °F 29.89 in WSW 1.0 mph 3.5 mph 47 % 0.00 in 0.0 W/m2 CLR
18:16 39.1 °F 21.0 °F 29.89 in WSW 0.5 mph   48 % 0.00 in 0.0 W/m2 CLR
18:22 38.8 °F 20.8 °F 29.90 in Calm     48 % 0.00 in 0.0 W/m2 CLR
18:27 38.5 °F 21.5 °F 29.90 in Calm     50 % 0.00 in 0.0 W/m2 CLR
18:32 38.3 °F 21.3 °F 29.90 in Calm     50 % 0.00 in 0.0 W/m2 CLR
18:37 38.1 °F 21.1 °F 29.90 in Calm     50 % 0.00 in 0.0 W/m2 CLR
18:42 37.9 °F 21.4 °F 29.91 in Calm     51 % 0.00 in 0.0 W/m2 CLR
18:47 37.6 °F 21.5 °F 29.91 in Calm     52 % 0.00 in 0.0 W/m2 CLR
18:52 37.3 °F 21.3 °F 29.91 in Calm     52 % 0.00 in 0.0 W/m2 CLR
18:57 37.1 °F 21.1 °F 29.91 in Calm     52 % 0.00 in 0.0 W/m2 CLR
19:02 36.6 °F 21.1 °F 29.91 in Calm     53 % 0.00 in 0.0 W/m2 CLR
19:07 36.2 °F 21.6 °F 29.91 in Calm     55 % 0.00 in 0.0 W/m2 CLR
19:12 35.6 °F 21.4 °F 29.91 in Calm   1.2 mph 56 % 0.00 in 0.0 W/m2 CLR
19:17 35.4 °F 21.7 °F 29.91 in WSW 1.0 mph 3.5 mph 57 % 0.00 in 0.0 W/m2 CLR
19:22 35.8 °F 21.6 °F 29.91 in Calm     56 % 0.00 in 0.0 W/m2 CLR
19:27 35.7 °F 21.5 °F 29.92 in Calm     56 % 0.00 in 0.0 W/m2 CLR
19:32 35.1 °F 21.4 °F 29.92 in Calm   1.2 mph 57 % 0.00 in 0.0 W/m2 CLR
19:37 35.0 °F 21.7 °F 29.92 in Calm     58 % 0.00 in 0.0 W/m2 CLR
19:42 35.2 °F 21.5 °F 29.91 in Calm     57 % 0.00 in 0.0 W/m2 CLR
19:47 35.5 °F 20.9 °F 29.91 in Calm     55 % 0.00 in 0.0 W/m2 CLR
19:52 35.3 °F 20.7 °F 29.92 in Calm     55 % 0.00 in 0.0 W/m2 CLR
19:57 34.8 °F 21.1 °F 29.92 in Calm     57 % 0.00 in 0.0 W/m2 CLR
20:02 34.6 °F 20.9 °F 29.92 in Calm     57 % 0.00 in 0.0 W/m2 CLR
20:07 34.8 °F 20.7 °F 29.92 in Calm     56 % 0.00 in 0.0 W/m2 CLR
20:12 34.9 °F 20.8 °F 29.92 in Calm     56 % 0.00 in 0.0 W/m2 CLR
20:17 34.6 °F 20.9 °F 29.93 in Calm     57 % 0.00 in 0.0 W/m2 CLR
20:22 34.0 °F 20.8 °F 29.93 in Calm     58 % 0.00 in 0.0 W/m2 CLR
20:27 33.7 °F 20.9 °F 29.93 in Calm     59 % 0.00 in 0.0 W/m2 CLR
20:32 33.6 °F 20.8 °F 29.93 in Calm     59 % 0.00 in 0.0 W/m2 CLR
20:37 33.2 °F 21.2 °F 29.93 in Calm   1.2 mph 61 % 0.00 in 0.0 W/m2 CLR
20:42 33.2 °F 21.2 °F 29.94 in Calm     61 % 0.00 in 0.0 W/m2 CLR
20:47 32.9 °F 21.3 °F 29.94 in Calm     62 % 0.00 in 0.0 W/m2 CLR
20:52 32.9 °F 20.9 °F 29.93 in Calm     61 % 0.00 in 0.0 W/m2 CLR
20:57 33.0 °F 21.0 °F 29.93 in Calm     61 % 0.00 in 0.0 W/m2 CLR
21:02 33.3 °F 20.9 °F 29.93 in Calm     60 % 0.00 in 0.0 W/m2 CLR
21:07 33.1 °F 20.7 °F 29.93 in Calm     60 % 0.00 in 0.0 W/m2 CLR
21:12 32.5 °F 20.5 °F 29.93 in Calm     61 % 0.00 in 0.0 W/m2 CLR
21:17 32.2 °F 21.0 °F 29.93 in Calm     63 % 0.00 in 0.0 W/m2 CLR
21:22 31.8 °F 21.0 °F 29.93 in Calm     64 % 0.00 in 0.0 W/m2 CLR
21:27 31.4 °F 21.3 °F 29.94 in WSW 0.1 mph 2.3 mph 66 % 0.00 in 0.0 W/m2 CLR
21:33 31.4 °F 21.0 °F 29.93 in Calm     65 % 0.00 in 0.0 W/m2 CLR
21:38 31.5 °F 21.1 °F 29.94 in Calm     65 % 0.00 in 0.0 W/m2 CLR
21:43 31.1 °F 21.1 °F 29.93 in Calm     66 % 0.00 in 0.0 W/m2 CLR
21:48 30.9 °F 21.2 °F 29.94 in Calm     67 % 0.00 in 0.0 W/m2 CLR
21:53 30.9 °F 21.2 °F 29.93 in Calm     67 % 0.00 in 0.0 W/m2 CLR
21:58 30.7 °F 21.4 °F 29.93 in Calm     68 % 0.00 in 0.0 W/m2 CLR
22:03 30.7 °F 21.7 °F 29.94 in Calm     69 % 0.00 in 0.0 W/m2 CLR
22:08 30.7 °F 21.7 °F 29.94 in Calm     69 % 0.00 in 0.0 W/m2 CLR
22:18 30.3 °F 21.0 °F 29.93 in Calm     68 % 0.00 in 0.0 W/m2 CLR
22:23 30.3 °F 21.3 °F 29.93 in Calm     69 % 0.00 in 0.0 W/m2 CLR
22:28 30.2 °F 21.2 °F 29.93 in Calm     69 % 0.00 in 0.0 W/m2 CLR
22:33 30.1 °F 21.2 °F 29.93 in Calm     69 % 0.00 in 0.0 W/m2 CLR
22:38 30.1 °F 21.2 °F 29.93 in Calm     69 % 0.00 in 0.0 W/m2 CLR
22:43 29.9 °F 21.3 °F 29.93 in Calm     70 % 0.00 in 0.0 W/m2 CLR
22:48 29.8 °F 21.2 °F 29.92 in Calm     70 % 0.00 in 0.0 W/m2 CLR
22:53 29.9 °F 21.3 °F 29.92 in Calm     70 % 0.00 in 0.0 W/m2 CLR
22:58 29.9 °F 21.3 °F 29.92 in Calm     70 % 0.00 in 0.0 W/m2 CLR
23:03 29.8 °F 21.2 °F 29.92 in Calm     70 % 0.00 in 0.0 W/m2 CLR
23:08 29.6 °F 21.3 °F 29.92 in Calm     71 % 0.00 in 0.0 W/m2 CLR
23:13 29.5 °F 21.3 °F 29.92 in Calm     71 % 0.00 in 0.0 W/m2 CLR
23:18 29.4 °F 21.5 °F 29.92 in Calm     72 % 0.00 in 0.0 W/m2 CLR
23:23 29.4 °F 21.5 °F 29.92 in Calm     72 % 0.00 in 0.0 W/m2 CLR
23:28 29.1 °F 21.2 °F 29.91 in Calm     72 % 0.00 in 0.0 W/m2 CLR
23:33 28.9 °F 21.0 °F 29.91 in Calm     72 % 0.00 in 0.0 W/m2 CLR
23:38 28.7 °F 20.8 °F 29.91 in Calm     72 % 0.00 in 0.0 W/m2 CLR
23:43 28.7 °F 21.1 °F 29.92 in Calm     73 % 0.00 in 0.0 W/m2 CLR
23:48 28.6 °F 21.0 °F 29.91 in Calm     73 % 0.00 in 0.0 W/m2 CLR
23:53 28.5 °F 20.9 °F 29.91 in Calm     73 % 0.00 in 0.0 W/m2 CLR
23:58 28.6 °F 21.0 °F 29.91 in Calm     73 % 0.00 in 0.0 W/m2 CLR
Air Products Campus Weather
Compliments of Weather Underground - 3.5 mb